Chassell, MI

2:31 PM EDT on March 24, 2017 (GMT -0400)
Creamery Road Station | | Change Station

Elev 646 ft 47.02 °N, 88.53 °W | Updated 12 seconds ago

Overcast
Overcast
40.8 °F
Feels Like 41 °F
N
1.8
Wind Variable Wind from North
Gusts 2.5 mph

Today
High -- | Low -- °F
--% Chance of Precip.
Yesterday
High -- | Low -- °F
Precip. -- in
Pressure 30.04 in
Visibility 10.0 miles
Clouds Overcast 1500 ft
Windchill 41 °F
Dew Point 32 °F
Humidity 69%
Rainfall 0.14 in
Snow Depth Not available.
7:48 AM 8:12 PM
Waning Crescent, 13% visible
SPECI KCMX 241815Z AUTO 01009KT 10SM OVC015 03/M01 A3004 RMK AO2 T00331011
Pressure 30.04 in
Visibility 10.0 miles
Clouds Overcast 1500 ft
Windchill 41 °F
Dew Point 32 °F
Humidity 69%
Rainfall 0.14 in
Snow Depth Not available.
7:48 AM 8:12 PM
Waning Crescent, 13% visible
SPECI KCMX 241815Z AUTO 01009KT 10SM OVC015 03/M01 A3004 RMK AO2 T00331011

Get Severe Weather Alerts

Thanks for signing up!

Be on the lookout for a verification email in your inbox.

You'll start receiving the daily forecast at 8 AM.

×

10-Day Weather Forecast

Almanac

Astronomy

Mar. 24, 2017 Rise Set
Actual Time
Civil Twilight
Nautical Twilight
Astronomical Twilight
Moon
Length of Visible Light
Length of Day
Tomorrow will be .
, % of the Moon is Illuminated

Today's Extremes

State Highs State Lows

Community

WunderPhotos

Upload Photos

1,962,540 photos uploaded!

WunderBlog® & News

Nearby

Air Quality

  Air Quality AQ Index Pollutant
Not available.

Snow Depth

Station Depth Elevation

Earthquake Activity

City Distance Mag. Time & Date
Minimum magnitude displayed is 2.5.

Earthquake Activity

City Distance Mag. Time & Date
Minimum magnitude displayed is 2.5.

Coastal Water Temperatures

Place Temperature

Stations

Nearby Weather Stations

Station Location Temp. Windchill Dew Point Humidity Wind Precip. Elev Updated Type
                   

Watches & Warnings

There are currently no watches in effect.